createdAt,value
2022-07-29T00:01:44.713Z,14.40
2022-07-29T00:04:13.946Z,14.30
2022-07-29T00:06:42.767Z,14.30
2022-07-29T00:09:11.141Z,14.30
2022-07-29T00:11:39.569Z,14.30
2022-07-29T00:14:08.013Z,14.30
2022-07-29T00:16:37.020Z,14.20
2022-07-29T00:19:07.900Z,14.30
2022-07-29T00:21:36.478Z,14.20
2022-07-29T00:24:04.904Z,14.30
2022-07-29T00:26:33.650Z,14.30
2022-07-29T00:29:32.463Z,14.20
2022-07-29T00:31:50.553Z,14.20
2022-07-29T00:34:37.505Z,14.20
2022-07-29T00:37:05.885Z,14.10
2022-07-29T00:39:36.289Z,14.10
2022-07-29T00:42:05.415Z,14.10
2022-07-29T00:44:38.024Z,14.10
2022-07-29T00:47:06.527Z,14.00
2022-07-29T00:49:37.182Z,14.10
2022-07-29T00:52:06.727Z,14.10
2022-07-29T00:54:35.684Z,14.10
2022-07-29T00:57:08.654Z,14.10
2022-07-29T00:59:37.013Z,14.10
2022-07-29T01:02:05.472Z,14.10
2022-07-29T01:04:34.769Z,14.00
2022-07-29T01:07:06.123Z,14.00
2022-07-29T01:09:46.151Z,14.00
2022-07-29T01:12:19.464Z,13.90
2022-07-29T01:14:48.774Z,13.90
2022-07-29T01:17:23.084Z,13.90
2022-07-29T01:19:59.123Z,13.90
2022-07-29T01:22:39.284Z,13.90
2022-07-29T01:25:30.962Z,13.80
2022-07-29T01:28:24.266Z,13.80
2022-07-29T01:30:57.542Z,13.80
2022-07-29T01:33:46.635Z,13.70
2022-07-29T01:36:19.498Z,13.70
2022-07-29T01:39:01.213Z,13.70
2022-07-29T01:41:35.181Z,13.60
2022-07-29T01:44:12.459Z,13.60
2022-07-29T01:46:48.020Z,13.50
2022-07-29T01:49:19.158Z,13.60
2022-07-29T01:51:51.420Z,13.50
2022-07-29T01:54:24.748Z,13.50
2022-07-29T01:56:55.682Z,13.50
2022-07-29T01:59:25.295Z,13.40
2022-07-29T02:01:56.617Z,13.40
2022-07-29T02:04:29.258Z,13.40
2022-07-29T02:07:02.646Z,13.30
2022-07-29T02:09:32.246Z,13.30
2022-07-29T02:12:02.493Z,13.30
2022-07-29T02:14:35.614Z,13.30
2022-07-29T02:17:05.815Z,13.30
2022-07-29T02:19:35.232Z,13.20
2022-07-29T02:22:04.117Z,13.30
2022-07-29T02:24:33.067Z,13.20
2022-07-29T02:27:02.882Z,13.20
2022-07-29T02:29:33.346Z,13.20
2022-07-29T02:32:03.140Z,13.20
2022-07-29T02:34:34.411Z,13.20
2022-07-29T02:37:03.427Z,13.20
2022-07-29T02:39:32.242Z,13.10
2022-07-29T02:42:05.394Z,13.20
2022-07-29T02:44:35.322Z,13.10
2022-07-29T02:47:09.915Z,13.10
2022-07-29T02:49:43.216Z,13.10
2022-07-29T02:52:20.503Z,13.00
2022-07-29T02:54:55.817Z,13.10
2022-07-29T02:57:30.934Z,13.00
2022-07-29T03:00:04.821Z,13.10
2022-07-29T03:02:36.782Z,13.10
2022-07-29T03:05:10.194Z,13.10
2022-07-29T03:07:39.917Z,13.00
2022-07-29T03:10:11.059Z,13.00
2022-07-29T03:12:43.186Z,13.00
2022-07-29T03:15:12.919Z,13.10
2022-07-29T03:17:42.034Z,13.00
2022-07-29T03:20:13.507Z,13.00
2022-07-29T03:22:44.782Z,13.00
2022-07-29T03:25:14.033Z,13.00
2022-07-29T03:27:42.663Z,13.00
2022-07-29T03:30:12.453Z,13.00
2022-07-29T03:32:46.651Z,13.00
2022-07-29T03:35:17.551Z,13.00
2022-07-29T03:37:45.867Z,13.10
2022-07-29T03:40:20.299Z,13.10
2022-07-29T03:42:50.352Z,13.10
2022-07-29T03:45:20.831Z,13.10
2022-07-29T03:47:58.408Z,13.20
2022-07-29T03:50:32.402Z,13.20
2022-07-29T03:53:01.000Z,13.20
2022-07-29T03:55:33.499Z,13.30
2022-07-29T03:58:03.074Z,13.30
2022-07-29T04:00:32.231Z,13.40
2022-07-29T04:03:00.620Z,13.40
2022-07-29T04:05:30.204Z,13.50
2022-07-29T04:07:58.751Z,13.50
2022-07-29T04:10:31.844Z,13.50
2022-07-29T04:13:00.807Z,13.60
2022-07-29T04:15:30.885Z,13.60
2022-07-29T04:18:00.088Z,13.70
2022-07-29T04:20:30.022Z,13.70
2022-07-29T04:22:58.268Z,13.80
2022-07-29T04:25:26.495Z,13.90
2022-07-29T04:28:03.967Z,14.00
2022-07-29T04:30:33.313Z,14.00
2022-07-29T04:33:01.807Z,14.10
2022-07-29T04:35:38.357Z,14.20
2022-07-29T04:38:08.330Z,14.30
2022-07-29T04:40:45.471Z,14.50
2022-07-29T04:43:16.009Z,14.50
2022-07-29T04:45:44.243Z,14.50
2022-07-29T04:48:12.623Z,14.60
2022-07-29T04:50:43.098Z,14.70
2022-07-29T04:53:11.271Z,14.80
2022-07-29T04:55:39.510Z,14.80
2022-07-29T04:58:08.411Z,14.90
2022-07-29T05:00:36.716Z,14.90
2022-07-29T05:03:05.480Z,15.10
2022-07-29T05:05:33.993Z,15.20
2022-07-29T05:08:03.607Z,15.30
2022-07-29T05:10:31.793Z,15.40
2022-07-29T05:13:00.011Z,15.50
2022-07-29T05:15:28.201Z,15.70
2022-07-29T05:17:56.417Z,15.70
2022-07-29T05:20:27.569Z,15.70
2022-07-29T05:22:55.979Z,15.90
2022-07-29T05:25:43.031Z,16.00
2022-07-29T05:28:12.810Z,16.00
2022-07-29T05:30:41.080Z,16.20
2022-07-29T05:33:09.373Z,16.20
2022-07-29T05:36:00.639Z,16.30
2022-07-29T05:38:29.341Z,16.40
2022-07-29T05:41:00.922Z,16.50
2022-07-29T05:43:29.156Z,16.60
2022-07-29T05:45:57.689Z,16.60
2022-07-29T05:48:26.362Z,16.60
2022-07-29T05:50:54.590Z,16.60
2022-07-29T05:53:22.928Z,16.70
2022-07-29T05:55:51.642Z,16.70
2022-07-29T05:58:21.365Z,16.80
2022-07-29T06:00:49.514Z,16.80
2022-07-29T06:03:17.945Z,16.90
2022-07-29T06:05:46.109Z,17.00
2022-07-29T06:08:14.420Z,17.20
2022-07-29T06:10:42.799Z,17.20
2022-07-29T06:13:11.094Z,17.30
2022-07-29T06:15:40.899Z,17.40
2022-07-29T06:18:11.117Z,17.40
2022-07-29T06:20:39.426Z,17.50
2022-07-29T06:23:07.664Z,17.50
2022-07-29T06:25:37.623Z,17.60
2022-07-29T06:28:06.207Z,17.70
2022-07-29T06:30:34.594Z,17.80
2022-07-29T06:33:04.295Z,17.90
2022-07-29T06:35:39.237Z,18.00
2022-07-29T06:38:29.963Z,18.00
2022-07-29T06:41:05.912Z,18.00
2022-07-29T06:43:50.372Z,18.20
2022-07-29T06:46:22.240Z,18.30
2022-07-29T06:48:53.027Z,18.30
2022-07-29T06:51:23.373Z,18.50
2022-07-29T06:54:00.422Z,18.70
2022-07-29T06:56:39.098Z,18.70
2022-07-29T06:59:09.601Z,18.70
2022-07-29T07:01:39.147Z,18.70
2022-07-29T07:04:09.693Z,18.90
2022-07-29T07:06:38.172Z,19.00
2022-07-29T07:09:06.614Z,19.00
2022-07-29T07:11:34.916Z,19.10
2022-07-29T07:14:04.256Z,19.20
2022-07-29T07:16:33.304Z,19.20
2022-07-29T07:19:01.943Z,19.30
2022-07-29T07:21:31.882Z,19.50
2022-07-29T07:24:00.541Z,19.50
2022-07-29T07:26:29.513Z,19.50
2022-07-29T07:28:57.750Z,19.60
2022-07-29T07:31:26.163Z,19.80
2022-07-29T07:33:54.516Z,19.80
2022-07-29T07:36:23.118Z,19.80
2022-07-29T07:38:56.758Z,19.90
2022-07-29T07:41:25.431Z,19.90
2022-07-29T07:43:53.622Z,20.10
2022-07-29T07:46:21.918Z,20.20
2022-07-29T07:48:50.273Z,20.40
2022-07-29T07:51:18.511Z,20.50
2022-07-29T07:53:50.427Z,20.80
2022-07-29T07:56:20.411Z,21.20
2022-07-29T07:58:48.766Z,21.70
2022-07-29T08:01:19.918Z,22.10
2022-07-29T08:03:48.217Z,22.50
2022-07-29T08:06:16.406Z,23.00
2022-07-29T08:08:44.621Z,23.30
2022-07-29T08:11:12.949Z,23.20
2022-07-29T08:13:42.778Z,23.60
2022-07-29T08:16:14.183Z,23.80
2022-07-29T08:18:43.528Z,23.40
2022-07-29T08:21:15.234Z,23.90
2022-07-29T08:23:59.588Z,23.70
2022-07-29T08:26:29.108Z,23.30
2022-07-29T08:28:58.625Z,23.60
2022-07-29T08:31:26.883Z,23.30
2022-07-29T08:33:57.129Z,23.10
2022-07-29T08:36:25.844Z,22.90
2022-07-29T08:38:54.141Z,23.10
2022-07-29T08:41:22.498Z,23.60
2022-07-29T08:43:51.114Z,24.00
2022-07-29T08:46:21.366Z,24.10
2022-07-29T08:48:49.957Z,24.40
2022-07-29T08:51:21.432Z,24.50
2022-07-29T08:53:51.436Z,24.90
2022-07-29T08:56:21.247Z,25.20
2022-07-29T08:58:52.013Z,25.30
2022-07-29T09:01:35.199Z,25.30
2022-07-29T09:04:08.078Z,25.60
2022-07-29T09:06:41.299Z,25.40
2022-07-29T09:09:10.035Z,25.90
2022-07-29T09:11:38.726Z,25.80
2022-07-29T09:14:07.049Z,26.00
2022-07-29T09:17:00.866Z,26.70
2022-07-29T09:19:32.233Z,27.20
2022-07-29T09:22:03.580Z,26.90
2022-07-29T09:24:43.591Z,26.30
2022-07-29T09:27:23.259Z,26.10
2022-07-29T09:30:01.637Z,26.00
2022-07-29T09:32:31.563Z,25.90
2022-07-29T09:35:20.333Z,26.00
2022-07-29T09:37:49.664Z,25.50
2022-07-29T09:40:20.707Z,24.90
2022-07-29T09:42:49.975Z,24.80
2022-07-29T09:45:30.451Z,24.60
2022-07-29T09:48:03.860Z,25.20
2022-07-29T09:50:39.885Z,25.30
2022-07-29T09:53:10.327Z,26.10
2022-07-29T09:55:49.926Z,26.40
2022-07-29T09:58:21.126Z,26.60
2022-07-29T10:00:50.645Z,26.50
2022-07-29T10:03:20.906Z,26.20
2022-07-29T10:06:06.870Z,26.00
2022-07-29T10:08:35.365Z,25.60
2022-07-29T10:11:12.906Z,25.60
2022-07-29T10:13:42.377Z,25.80
2022-07-29T10:16:11.095Z,25.60
2022-07-29T10:18:42.470Z,25.70
2022-07-29T10:21:11.076Z,25.30
2022-07-29T10:23:51.438Z,25.10
2022-07-29T10:26:21.147Z,24.80
2022-07-29T10:28:49.453Z,24.70
2022-07-29T10:31:27.069Z,24.70
2022-07-29T10:34:06.078Z,24.70
2022-07-29T10:36:47.580Z,24.60
2022-07-29T10:39:34.363Z,24.70
2022-07-29T10:42:20.388Z,24.70
2022-07-29T10:45:02.227Z,24.80
2022-07-29T10:47:31.010Z,25.20
2022-07-29T10:50:01.835Z,25.50
2022-07-29T10:52:54.665Z,26.20
2022-07-29T10:55:42.981Z,26.70
2022-07-29T10:58:17.877Z,26.20
2022-07-29T11:00:46.920Z,25.80
2022-07-29T11:03:49.777Z,26.10
2022-07-29T11:06:26.154Z,26.60
2022-07-29T11:09:25.824Z,26.80
2022-07-29T11:12:04.182Z,26.60
2022-07-29T11:14:58.051Z,26.10
2022-07-29T11:17:26.620Z,25.80
2022-07-29T11:20:33.740Z,25.70
2022-07-29T11:23:04.258Z,25.80
2022-07-29T11:25:42.479Z,25.80
2022-07-29T11:31:13.006Z,25.80
2022-07-29T11:33:56.251Z,25.60
2022-07-29T11:36:28.040Z,25.70
2022-07-29T11:39:36.424Z,25.90
2022-07-29T11:42:41.711Z,26.00
2022-07-29T11:45:44.978Z,26.00
2022-07-29T11:48:28.483Z,26.20
2022-07-29T11:50:50.835Z,26.60
2022-07-29T11:53:19.562Z,27.30
2022-07-29T11:55:58.156Z,27.50
2022-07-29T11:58:27.144Z,27.60
2022-07-29T12:00:56.447Z,27.60
2022-07-29T12:03:33.545Z,27.80
2022-07-29T12:06:04.862Z,28.10
2022-07-29T12:08:43.578Z,28.50
2022-07-29T12:11:20.753Z,28.80
2022-07-29T12:13:52.531Z,28.10
2022-07-29T12:16:29.461Z,27.70
2022-07-29T12:19:02.547Z,27.30
2022-07-29T12:21:31.569Z,27.00
2022-07-29T12:24:09.068Z,26.70
2022-07-29T12:26:51.644Z,26.60
2022-07-29T12:29:35.254Z,26.70
2022-07-29T12:32:05.277Z,26.80
2022-07-29T12:34:34.412Z,26.30
2022-07-29T12:37:03.225Z,26.40
2022-07-29T12:39:32.376Z,26.70
2022-07-29T12:42:04.595Z,26.50
2022-07-29T12:44:47.369Z,26.30
2022-07-29T12:47:15.696Z,26.10
2022-07-29T12:49:43.927Z,26.00
2022-07-29T12:52:29.171Z,25.70
2022-07-29T12:54:57.496Z,25.70
2022-07-29T12:57:27.535Z,25.60
2022-07-29T13:00:04.766Z,25.50
2022-07-29T13:02:33.123Z,25.50
2022-07-29T13:05:02.982Z,25.20
2022-07-29T13:07:55.033Z,24.90
2022-07-29T13:10:24.469Z,24.80
2022-07-29T13:13:12.064Z,24.70
2022-07-29T13:15:41.486Z,24.60
2022-07-29T13:18:31.529Z,24.60
2022-07-29T13:21:12.753Z,24.70
2022-07-29T13:23:41.258Z,24.90
2022-07-29T13:26:10.258Z,25.10
2022-07-29T13:28:39.997Z,25.30
2022-07-29T13:31:08.471Z,25.30
2022-07-29T13:33:36.681Z,25.40
2022-07-29T13:36:05.033Z,25.60
2022-07-29T13:38:35.741Z,25.60
2022-07-29T13:41:04.046Z,25.80
2022-07-29T13:43:33.822Z,26.30
2022-07-29T13:46:03.467Z,26.60
2022-07-29T13:48:31.752Z,26.80
2022-07-29T13:50:59.971Z,27.20
2022-07-29T13:53:28.833Z,27.40
2022-07-29T13:55:57.313Z,27.70
2022-07-29T13:58:25.826Z,27.70
2022-07-29T14:00:54.087Z,27.60
2022-07-29T14:03:23.940Z,27.60
2022-07-29T14:05:52.125Z,27.50
2022-07-29T14:08:20.541Z,27.10
2022-07-29T14:10:48.671Z,26.60
2022-07-29T14:13:24.278Z,26.10
2022-07-29T14:15:54.116Z,26.00
2022-07-29T14:18:23.635Z,26.10
2022-07-29T14:20:52.104Z,26.10
2022-07-29T14:23:20.630Z,26.20
2022-07-29T14:25:49.362Z,26.00
2022-07-29T14:28:18.137Z,26.00
2022-07-29T14:30:46.341Z,26.20
2022-07-29T14:33:14.813Z,26.60
2022-07-29T14:35:44.582Z,26.90
2022-07-29T14:38:12.797Z,27.10
2022-07-29T14:40:41.146Z,26.90
2022-07-29T14:43:09.395Z,26.90
2022-07-29T14:45:37.643Z,27.50
2022-07-29T14:48:06.217Z,27.50
2022-07-29T14:50:34.433Z,27.40
2022-07-29T14:53:04.052Z,27.40
2022-07-29T14:55:32.347Z,27.60
2022-07-29T14:58:09.907Z,28.00
2022-07-29T15:00:41.456Z,28.00
2022-07-29T15:03:11.271Z,27.80
2022-07-29T15:05:39.858Z,27.70
2022-07-29T15:08:10.152Z,27.70
2022-07-29T15:10:38.738Z,27.30
2022-07-29T15:13:06.946Z,27.10
2022-07-29T15:15:35.204Z,27.10
2022-07-29T15:18:03.428Z,27.00
2022-07-29T15:20:31.698Z,27.10
2022-07-29T15:22:59.849Z,27.00
2022-07-29T15:25:29.438Z,26.80
2022-07-29T15:28:01.190Z,26.70
2022-07-29T15:30:33.977Z,26.50
2022-07-29T15:33:03.506Z,26.50
2022-07-29T15:35:31.867Z,26.40
2022-07-29T15:38:00.144Z,26.50
2022-07-29T15:40:30.448Z,26.30
2022-07-29T15:43:01.693Z,26.20
2022-07-29T15:45:32.610Z,26.10
2022-07-29T15:48:01.837Z,25.90
2022-07-29T15:50:30.076Z,26.00
2022-07-29T15:52:58.368Z,26.00
2022-07-29T15:55:26.684Z,25.90
2022-07-29T15:58:00.518Z,26.10
2022-07-29T16:00:29.116Z,26.10
2022-07-29T16:02:57.534Z,26.40
2022-07-29T16:05:26.240Z,26.30
2022-07-29T16:07:54.408Z,26.10
2022-07-29T16:10:22.667Z,25.90
2022-07-29T16:12:50.795Z,25.70
2022-07-29T16:15:20.366Z,25.60
2022-07-29T16:17:50.338Z,25.30
2022-07-29T16:20:18.570Z,25.00
2022-07-29T16:22:46.744Z,24.80
2022-07-29T16:25:14.896Z,24.60
2022-07-29T16:27:43.062Z,24.30
2022-07-29T16:30:11.892Z,24.20
2022-07-29T16:32:41.436Z,24.10
2022-07-29T16:35:10.343Z,24.10
2022-07-29T16:37:39.183Z,24.00
2022-07-29T16:40:11.818Z,24.00
2022-07-29T16:42:47.878Z,24.00
2022-07-29T16:45:17.476Z,24.00
2022-07-29T16:47:50.922Z,24.00
2022-07-29T16:50:20.040Z,24.00
2022-07-29T16:52:48.198Z,24.00
2022-07-29T16:55:16.388Z,24.00
2022-07-29T16:57:45.440Z,23.90
2022-07-29T17:00:14.926Z,23.90
2022-07-29T17:02:43.512Z,23.80
2022-07-29T17:05:13.752Z,23.90
2022-07-29T17:07:42.574Z,23.80
2022-07-29T17:10:11.713Z,23.80
2022-07-29T17:12:41.256Z,23.70
2022-07-29T17:15:11.595Z,23.70
2022-07-29T17:17:55.348Z,23.60
2022-07-29T17:20:27.384Z,23.40
2022-07-29T17:22:55.719Z,23.40
2022-07-29T17:25:24.714Z,23.20
2022-07-29T17:27:57.532Z,23.10
2022-07-29T17:30:28.582Z,23.00
2022-07-29T17:32:56.836Z,22.90
2022-07-29T17:35:43.697Z,22.80
2022-07-29T17:38:11.876Z,22.70
2022-07-29T17:40:40.187Z,22.60
2022-07-29T17:43:09.349Z,22.50
2022-07-29T17:45:49.829Z,22.50
2022-07-29T17:48:19.652Z,22.40
2022-07-29T17:50:50.069Z,22.30
2022-07-29T17:53:18.601Z,22.30
2022-07-29T17:55:48.666Z,22.20
2022-07-29T17:58:17.240Z,22.10
2022-07-29T18:00:45.771Z,22.00
2022-07-29T18:03:14.179Z,22.00
2022-07-29T18:05:43.734Z,21.80
2022-07-29T18:08:14.163Z,21.80
2022-07-29T18:10:42.514Z,21.70
2022-07-29T18:13:12.613Z,21.60
2022-07-29T18:15:41.108Z,21.50
2022-07-29T18:18:09.678Z,21.50
2022-07-29T18:20:37.882Z,21.40
2022-07-29T18:23:06.237Z,21.30
2022-07-29T18:25:36.451Z,21.30
2022-07-29T18:28:05.675Z,21.30
2022-07-29T18:30:36.757Z,21.10
2022-07-29T18:33:20.886Z,21.10
2022-07-29T18:35:50.907Z,21.00
2022-07-29T18:38:19.209Z,20.90
2022-07-29T18:40:49.049Z,20.80
2022-07-29T18:43:17.272Z,20.70
2022-07-29T18:45:45.430Z,20.70
2022-07-29T18:48:13.784Z,20.60
2022-07-29T18:50:42.315Z,20.50
2022-07-29T18:53:10.505Z,20.40
2022-07-29T18:55:38.688Z,20.30
2022-07-29T18:58:08.289Z,20.30
2022-07-29T19:00:36.482Z,20.10
2022-07-29T19:03:04.904Z,20.10
2022-07-29T19:05:33.771Z,20.00
2022-07-29T19:08:02.061Z,20.00
2022-07-29T19:10:30.439Z,19.90
2022-07-29T19:12:58.798Z,19.90
2022-07-29T19:15:28.570Z,19.70
2022-07-29T19:18:01.011Z,19.70
2022-07-29T19:20:29.686Z,19.60
2022-07-29T19:22:58.545Z,19.50
2022-07-29T19:25:27.111Z,19.50
2022-07-29T19:27:55.357Z,19.40
2022-07-29T19:30:23.609Z,19.40
2022-07-29T19:32:53.361Z,19.30
2022-07-29T19:35:31.102Z,19.30
2022-07-29T19:38:00.545Z,19.20
2022-07-29T19:40:29.548Z,19.10
2022-07-29T19:42:58.064Z,19.10
2022-07-29T19:45:26.790Z,19.00
2022-07-29T19:48:01.333Z,18.90
2022-07-29T19:50:30.562Z,18.90
2022-07-29T19:52:59.334Z,18.80
2022-07-29T19:55:27.715Z,18.80
2022-07-29T19:57:56.570Z,18.70
2022-07-29T20:00:25.953Z,18.70
2022-07-29T20:02:54.363Z,18.60
2022-07-29T20:05:27.879Z,18.50
2022-07-29T20:07:57.248Z,18.50
2022-07-29T20:10:25.723Z,18.40
2022-07-29T20:12:55.297Z,18.40
2022-07-29T20:15:23.855Z,18.30
2022-07-29T20:17:56.921Z,18.30
2022-07-29T20:20:27.379Z,18.30
2022-07-29T20:22:55.719Z,18.20
2022-07-29T20:25:24.474Z,18.20
2022-07-29T20:27:54.316Z,18.20
2022-07-29T20:30:23.414Z,18.10
2022-07-29T20:32:56.071Z,18.00
2022-07-29T20:38:08.316Z,17.90
2022-07-29T20:40:38.491Z,17.90
2022-07-29T20:43:06.975Z,17.90
2022-07-29T20:45:36.430Z,17.90
2022-07-29T20:48:05.440Z,17.90
2022-07-29T20:50:36.992Z,17.80
2022-07-29T20:53:05.314Z,17.80
2022-07-29T20:55:35.023Z,17.80
2022-07-29T20:58:03.507Z,17.80
2022-07-29T21:00:32.228Z,17.70
2022-07-29T21:03:00.427Z,17.70
2022-07-29T21:05:28.826Z,17.70
2022-07-29T21:07:58.270Z,17.60
2022-07-29T21:10:26.607Z,17.60
2022-07-29T21:12:56.132Z,17.50
2022-07-29T21:15:24.429Z,17.50
2022-07-29T21:18:00.412Z,17.50
2022-07-29T21:20:28.923Z,17.40
2022-07-29T21:22:57.908Z,17.40
2022-07-29T21:25:26.965Z,17.40
2022-07-29T21:28:13.843Z,17.30
2022-07-29T21:30:41.973Z,17.30
2022-07-29T21:33:10.267Z,17.30
2022-07-29T21:36:14.962Z,17.20
2022-07-29T21:38:26.701Z,17.20
2022-07-29T21:40:55.077Z,17.20
2022-07-29T21:43:26.593Z,17.20
2022-07-29T21:45:54.898Z,17.10
2022-07-29T21:48:24.034Z,17.10
2022-07-29T21:50:52.654Z,17.10
2022-07-29T21:53:23.075Z,17.10
2022-07-29T21:55:55.590Z,17.10
2022-07-29T21:58:25.284Z,17.10
2022-07-29T22:00:53.964Z,17.10
2022-07-29T22:03:22.411Z,17.20
2022-07-29T22:05:50.643Z,17.20
2022-07-29T22:08:21.424Z,17.20
2022-07-29T22:10:49.572Z,17.20
2022-07-29T22:13:17.742Z,17.20
2022-07-29T22:15:47.506Z,17.20
2022-07-29T22:18:21.016Z,17.20
2022-07-29T22:20:49.948Z,17.20
2022-07-29T22:23:18.199Z,17.20
2022-07-29T22:25:46.381Z,17.20
2022-07-29T22:28:14.523Z,17.20
2022-07-29T22:30:42.871Z,17.20
2022-07-29T22:33:17.469Z,17.30
2022-07-29T22:35:48.803Z,17.20
2022-07-29T22:38:17.447Z,17.30
2022-07-29T22:40:46.869Z,17.30
2022-07-29T22:43:17.021Z,17.20
2022-07-29T22:45:45.476Z,17.20
2022-07-29T22:48:17.748Z,17.20
2022-07-29T22:50:45.954Z,17.20
2022-07-29T22:53:14.110Z,17.10
2022-07-29T22:55:42.276Z,17.20
2022-07-29T22:58:10.630Z,17.10
2022-07-29T23:00:38.970Z,17.10
2022-07-29T23:03:07.171Z,17.10
2022-07-29T23:05:36.832Z,17.00
2022-07-29T23:08:05.482Z,17.00
2022-07-29T23:10:33.805Z,17.00
2022-07-29T23:13:01.985Z,17.10
2022-07-29T23:15:30.127Z,17.10
2022-07-29T23:17:58.782Z,17.10
2022-07-29T23:20:27.134Z,17.10
2022-07-29T23:22:56.694Z,17.10
2022-07-29T23:25:24.949Z,17.10
2022-07-29T23:27:53.395Z,17.10
2022-07-29T23:30:21.585Z,17.00
2022-07-29T23:32:49.775Z,17.00
2022-07-29T23:35:17.967Z,16.90
2022-07-29T23:37:47.133Z,16.90
2022-07-29T23:40:17.050Z,16.80
2022-07-29T23:42:45.323Z,16.80
2022-07-29T23:45:14.808Z,16.80
2022-07-29T23:47:43.019Z,16.70
2022-07-29T23:50:13.222Z,16.70
2022-07-29T23:52:42.787Z,16.70
2022-07-29T23:55:36.907Z,16.70
2022-07-29T23:58:01.632Z,16.70
